Map

Track Data

SID SEASON NUMBER BASIN SUBBASIN NAME ISO_TIME NATURE LAT LON WMO_WIND WMO_PRES WMO_AGENCY TRACK_TYPE DIST2LAND LANDFALL IFLAG USA_AGENCY USA_ATCF_ID USA_LAT USA_LON USA_RECORD USA_STATUS USA_WIND USA_PRES USA_SSHS USA_R34_NE USA_R34_SE USA_R34_SW USA_R34_NW USA_R50_NE USA_R50_SE USA_R50_SW USA_R50_NW USA_R64_NE USA_R64_SE USA_R64_SW USA_R64_NW USA_POCI USA_ROCI USA_RMW USA_EYE TOKYO_LAT TOKYO_LON TOKYO_GRADE TOKYO_WIND TOKYO_PRES TOKYO_R50_DIR TOKYO_R50_LONG TOKYO_R50_SHORT TOKYO_R30_DIR TOKYO_R30_LONG TOKYO_R30_SHORT TOKYO_LAND CMA_LAT CMA_LON CMA_CAT CMA_WIND CMA_PRES HKO_LAT HKO_LON HKO_CAT HKO_WIND HKO_PRES NEWDELHI_LAT NEWDELHI_LON NEWDELHI_GRADE NEWDELHI_WIND NEWDELHI_PRES NEWDELHI_CI NEWDELHI_DP NEWDELHI_POCI REUNION_LAT REUNION_LON REUNION_TYPE REUNION_WIND REUNION_PRES REUNION_TNUM REUNION_CI REUNION_RMW REUNION_R34_NE REUNION_R34_SE REUNION_R34_SW REUNION_R34_NW REUNION_R50_NE REUNION_R50_SE REUNION_R50_SW REUNION_R50_NW REUNION_R64_NE REUNION_R64_SE REUNION_R64_SW REUNION_R64_NW BOM_LAT BOM_LON BOM_TYPE BOM_WIND BOM_PRES BOM_TNUM BOM_CI BOM_RMW BOM_R34_NE BOM_R34_SE BOM_R34_SW BOM_R34_NW BOM_R50_NE BOM_R50_SE BOM_R50_SW BOM_R50_NW BOM_R64_NE BOM_R64_SE BOM_R64_SW BOM_R64_NW BOM_ROCI BOM_POCI BOM_EYE BOM_POS_METHOD BOM_PRES_METHOD NADI_LAT NADI_LON NADI_CAT NADI_WIND NADI_PRES WELLINGTON_LAT WELLINGTON_LON WELLINGTON_WIND WELLINGTON_PRES DS824_LAT DS824_LON DS824_STAGE DS824_WIND DS824_PRES TD9636_LAT TD9636_LON TD9636_STAGE TD9636_WIND TD9636_PRES TD9635_LAT TD9635_LON TD9635_WIND TD9635_PRES TD9635_ROCI NEUMANN_LAT NEUMANN_LON NEUMANN_CLASS NEUMANN_WIND NEUMANN_PRES MLC_LAT MLC_LON MLC_CLASS MLC_WIND MLC_PRES USA_GUST BOM_GUST BOM_GUST_PER REUNION_GUST REUNION_GUST_PER USA_SEAHGT USA_SEARAD_NE USA_SEARAD_SE USA_SEARAD_SW USA_SEARAD_NW STORM_SPEED STORM_DIR
1934293N15283 1934 69 NA CS NOT_NAMED 1934-10-19 18:00:00 TS 15.3000 -76.9000 30 hurdat_atl main 270 240 O_____________ hurdat_atl AL121934 15.3000 -76.9000 TD 30 -1 7 41
1934293N15283 1934 69 NA CS NOT_NAMED 1934-10-19 21:00:00 TS 15.5800 -76.6476 main 243 218 P_____________ AL121934 15.5800 -76.6476 TD 32 -1 8 39
1934293N15283 1934 69 NA CS NOT_NAMED 1934-10-20 00:00:00 TS 15.9000 -76.4000 35 hurdat_atl main 218 179 O_____________ hurdat_atl AL121934 15.9000 -76.4000 TS 35 0 8 33
1934293N15283 1934 69 NA CS NOT_NAMED 1934-10-20 03:00:00 TS 16.2850 -76.1701 main 179 135 P_____________ AL121934 16.2850 -76.1701 TS 37 0 9 26
1934293N15283 1934 69 NA CS NOT_NAMED 1934-10-20 06:00:00 TS 16.7000 -76.0000 40 hurdat_atl main 135 95 O_____________ hurdat_atl AL121934 16.7000 -76.0000 TS 40 0 9 20
1934293N15283 1934 69 NA CS NOT_NAMED 1934-10-20 09:00:00 TS 17.0998 -75.8603 main 95 54 P_____________ AL121934 17.0998 -75.8603 TS 40 0 8 7
1934293N15283 1934 69 NA CS NOT_NAMED 1934-10-20 12:00:00 TS 17.5000 -75.9000 40 hurdat_atl main 54 0 O_____________ hurdat_atl AL121934 17.5000 -75.9000 TS 40 0 9 336
1934293N15283 1934 69 NA CS NOT_NAMED 1934-10-20 15:00:00 TS 17.9077 -76.2322 main 0 0 P_____________ AL121934 17.9077 -76.2322 TS 40 0 11 316
1934293N15283 1934 69 NA CS NOT_NAMED 1934-10-20 18:00:00 TS 18.3000 -76.7000 40 hurdat_atl main 10 0 O_____________ hurdat_atl AL121934 18.3000 -76.7000 TS 40 0 11 312
1934293N15283 1934 69 NA CS NOT_NAMED 1934-10-20 21:00:00 TS 18.6424 -77.1003 main 22 22 P_____________ AL121934 18.6424 -77.1003 TS 40 0 10 313
1934293N15283 1934 69 NA CS NOT_NAMED 1934-10-21 00:00:00 TS 19.0000 -77.5000 40 hurdat_atl main 67 49 O_____________ hurdat_atl AL121934 19.0000 -77.5000 TS 40 0 11 315
1934293N15283 1934 69 NA CS NOT_NAMED 1934-10-21 03:00:00 TS 19.4351 -77.9299 main 49 38 P_____________ AL121934 19.4351 -77.9299 TS 40 0 12 320
1934293N15283 1934 69 NA CS NOT_NAMED 1934-10-21 06:00:00 TS 19.9000 -78.3000 40 hurdat_atl main 63 63 O_____________ hurdat_atl AL121934 19.9000 -78.3000 TS 40 0 11 324
1934293N15283 1934 69 NA CS NOT_NAMED 1934-10-21 09:00:00 TS 20.3348 -78.6195 main 74 30 P_____________ AL121934 20.3348 -78.6195 TS 40 0 10 337
1934293N15283 1934 69 NA CS NOT_NAMED 1934-10-21 12:00:00 TS 20.8000 -78.7000 40 hurdat_atl main 30 0 O_____________ hurdat_atl AL121934 20.8000 -78.7000 TS 40 0 10 10
1934293N15283 1934 69 NA NA NOT_NAMED 1934-10-21 15:00:00 TS 21.3348 -78.4351 main 0 0 P_____________ AL121934 21.3348 -78.4351 TS 37 0 13 34
1934293N15283 1934 69 NA NA NOT_NAMED 1934-10-21 18:00:00 TS 21.9000 -77.9000 35 hurdat_atl main 0 0 O_____________ hurdat_atl AL121934 21.9000 -77.9000 TS 35 0 16 45
1934293N15283 1934 69 NA NA NOT_NAMED 1934-10-21 21:00:00 TS 22.4501 -77.2523 main 84 84 P_____________ AL121934 22.4501 -77.2523 TS 35 0 17 50
1934293N15283 1934 69 NA NA NOT_NAMED 1934-10-22 00:00:00 TS 23.0000 -76.5000 35 hurdat_atl main 157 157 O_____________ hurdat_atl AL121934 23.0000 -76.5000 TS 35 0 18 51
1934293N15283 1934 69 NA NA NOT_NAMED 1934-10-22 03:00:00 TS 23.5495 -75.7718 main 222 222 P_____________ AL121934 23.5495 -75.7718 TS 35 0 18 51
1934293N15283 1934 69 NA NA NOT_NAMED 1934-10-22 06:00:00 TS 24.1000 -75.0000 35 hurdat_atl main 277 277 O_____________ hurdat_atl AL121934 24.1000 -75.0000 TS 35 0 18 53
1934293N15283 1934 69 NA NA NOT_NAMED 1934-10-22 09:00:00 TS 24.6646 -74.1722 main 354 354 P_____________ AL121934 24.6646 -74.1722 TS 35 0 19 55
1934293N15283 1934 69 NA NA NOT_NAMED 1934-10-22 12:00:00 TS 25.2000 -73.3000 35 hurdat_atl main 447 447 O_____________ hurdat_atl AL121934 25.2000 -73.3000 TS 35 0 19 58
1934293N15283 1934 69 NA NA NOT_NAMED 1934-10-22 15:00:00 TS 25.6643 -72.4214 main 506 506 P_____________ AL121934 25.6643 -72.4214 TS 35 0 19 61
1934293N15283 1934 69 NA NA NOT_NAMED 1934-10-22 18:00:00 TS 26.1000 -71.5000 35 hurdat_atl main 568 568 O_____________ hurdat_atl AL121934 26.1000 -71.5000 TS 35 0 19 62
1934293N15283 1934 69 NA NA NOT_NAMED 1934-10-22 21:00:00 TS 26.5568 -70.5294 main 654 654 P_____________ AL121934 26.5568 -70.5294 TS 35 0 20 63
1934293N15283 1934 69 NA NA NOT_NAMED 1934-10-23 00:00:00 TS 27.0000 -69.5000 35 hurdat_atl main 738 738 O_____________ hurdat_atl AL121934 27.0000 -69.5000 TS 35 0 21 66
1934293N15283 1934 69 NA NA NOT_NAMED 1934-10-23 03:00:00 TS 27.3991 -68.4287 main 834 834 P_____________ AL121934 27.3991 -68.4287 TS 35 0 21 68
1934293N15283 1934 69 NA NA NOT_NAMED 1934-10-23 06:00:00 TS 27.8000 -67.3000 35 hurdat_atl main 935 935 O_____________ hurdat_atl AL121934 27.8000 -67.3000 TS 35 0 22 68
1934293N15283 1934 69 NA NA NOT_NAMED 1934-10-23 09:00:00 TS 28.2344 -66.1141 main 1039 1039 P_____________ AL121934 28.2344 -66.1141 TS 32 -1 23 67
1934293N15283 1934 69 NA NA NOT_NAMED 1934-10-23 12:00:00 TS 28.7000 -64.9000 30 hurdat_atl main 1140 1140 O_____________ hurdat_atl AL121934 28.7000 -64.9000 TD 30 -1 23 66
1934293N15283 1934 69 NA NA NOT_NAMED 1934-10-23 15:00:00 TS 29.1944 -63.6974 main 1222 1222 P_____________ AL121934 29.1944 -63.6974 TD 30 -1 23 64
1934293N15283 1934 69 NA NA NOT_NAMED 1934-10-23 18:00:00 TS 29.7000 -62.5000 30 hurdat_atl main 1301 O_____________ hurdat_atl AL121934 29.7000 -62.5000 TD 30 -1 23 64

About IBTrACS Database

This database is a web-friendly format of International Best Track Archive for Climate Stewardship (IBTrACS), a global best track data archive curated by NOAA dating back to 1842.

Updated: 2021-12-03